Time;durP1;ratioP1;P1;durP2;ratioP2;P2;SDS_P1;SDS_P2;PMS_P1;PMS_P2;Temp;Humidity;BMP_temperature;BMP_pressure;BME280_temperature;BME280_humidity;BME280_pressure;Samples;Min_cycle;Max_cycle;Signal;HPM_P1;HPM_P2
2023/08/31 00:00:31;;;;;;;83.37;21.30;;;14.90;99.90;;;;;;5037189;28;20891;-81
2023/08/31 00:02:58;;;;;;;78.03;22.13;;;14.80;99.90;;;;;;5036589;28;20451;-81
2023/08/31 00:05:24;;;;;;;79.17;18.63;;;14.70;99.90;;;;;;5019297;28;20993;-81
2023/08/31 00:07:50;;;;;;;79.17;22.30;;;14.70;99.90;;;;;;5035952;28;20412;-81
2023/08/31 00:10:17;;;;;;;81.90;21.13;;;14.80;99.90;;;;;;5040869;28;20485;-81
2023/08/31 00:12:43;;;;;;;77.07;20.37;;;14.70;99.90;;;;;;5022632;28;20474;-81
2023/08/31 00:15:09;;;;;;;78.00;21.90;;;14.80;99.90;;;;;;5022962;28;20408;-81
2023/08/31 00:17:35;;;;;;;77.97;23.23;;;14.80;99.90;;;;;;5040749;28;20494;-81
2023/08/31 00:20:01;;;;;;;75.43;16.87;;;14.80;99.90;;;;;;5040688;28;20490;-81
2023/08/31 00:22:27;;;;;;;82.00;22.00;;;14.80;99.90;;;;;;5040543;28;20694;-81
2023/08/31 00:24:52;;;;;;;77.97;20.43;;;14.70;99.90;;;;;;5041320;28;20193;-81
2023/08/31 00:27:18;;;;;;;78.93;22.43;;;14.60;99.90;;;;;;5040379;28;20173;-81
2023/08/31 00:29:49;;;;;;;79.10;21.80;;;14.60;99.90;;;;;;5039991;28;20223;-81
2023/08/31 00:32:15;;;;;;;81.10;24.43;;;14.60;99.90;;;;;;5006552;28;20256;-81
2023/08/31 00:34:41;;;;;;;77.47;19.67;;;14.60;99.90;;;;;;5022750;28;20408;-81
2023/08/31 00:37:06;;;;;;;75.53;20.77;;;14.70;99.90;;;;;;5040025;28;20749;-81
2023/08/31 00:39:33;;;;;;;78.60;18.90;;;14.70;99.90;;;;;;5022591;28;20292;-81
2023/08/31 00:41:59;;;;;;;75.50;21.23;;;14.70;99.90;;;;;;5022430;28;20177;-81
2023/08/31 00:44:25;;;;;;;73.77;20.00;;;14.70;99.90;;;;;;5040735;28;20451;-81
2023/08/31 00:46:51;;;;;;;77.30;23.13;;;14.70;99.90;;;;;;5040334;28;20414;-81
2023/08/31 00:49:17;;;;;;;75.97;19.67;;;14.70;99.90;;;;;;5040131;28;20173;-81
2023/08/31 00:51:48;;;;;;;74.37;17.60;;;14.60;99.90;;;;;;5039843;28;20419;-81
2023/08/31 00:54:16;;;;;;;76.53;24.37;;;14.60;99.90;;;;;;5022168;28;20404;-81
2023/08/31 00:56:41;;;;;;;81.27;19.83;;;14.60;99.90;;;;;;5040171;28;20899;-81
2023/08/31 00:59:07;;;;;;;75.57;23.13;;;14.60;99.90;;;;;;5040446;28;20502;-81
2023/08/31 01:01:51;;;;;;;77.50;20.10;;;14.60;99.90;;;;;;5039262;28;20252;-81
2023/08/31 01:04:22;;;;;;;76.20;20.23;;;14.70;99.90;;;;;;5039784;28;20189;-81
2023/08/31 01:06:55;;;;;;;76.17;20.97;;;14.60;99.90;;;;;;5040180;28;20520;-81
2023/08/31 01:09:43;;;;;;;77.67;24.77;;;14.70;99.90;;;;;;5039713;28;20885;-81
2023/08/31 01:12:18;;;;;;;77.83;24.30;;;14.60;99.90;;;;;;5039827;28;20396;-81
2023/08/31 01:14:59;;;;;;;76.70;24.50;;;14.60;99.90;;;;;;5039108;28;20767;-81
2023/08/31 01:17:29;;;;;;;76.97;21.17;;;14.70;99.90;;;;;;5021924;28;20926;-81
2023/08/31 01:19:57;;;;;;;80.47;21.07;;;14.60;99.90;;;;;;5038804;28;20522;-81
2023/08/31 01:22:57;;;;;;;81.33;24.37;;;14.60;99.90;;;;;;5038846;28;20904;-81
2023/08/31 01:25:23;;;;;;;75.37;21.60;;;14.50;99.90;;;;;;5039788;28;20752;-81
2023/08/31 01:27:49;;;;;;;76.20;19.57;;;14.60;99.90;;;;;;5039606;28;20925;-81
2023/08/31 01:30:14;;;;;;;77.13;21.70;;;14.50;99.90;;;;;;5039489;28;21070;-81
2023/08/31 01:32:47;;;;;;;77.27;23.10;;;14.50;99.90;;;;;;5039270;28;20439;-81
2023/08/31 01:35:16;;;;;;;77.43;19.40;;;14.50;99.90;;;;;;5039012;28;20167;-80
2023/08/31 01:37:47;;;;;;;74.87;17.73;;;14.50;99.90;;;;;;5038879;28;20405;-81
2023/08/31 01:40:19;;;;;;;83.23;19.40;;;14.50;99.90;;;;;;5021205;28;20788;-81
2023/08/31 01:42:46;;;;;;;74.77;19.27;;;14.40;99.90;;;;;;5039001;28;20439;-81
2023/08/31 01:45:15;;;;;;;76.00;15.10;;;14.40;99.90;;;;;;5038608;28;20502;-81
2023/08/31 01:47:41;;;;;;;83.63;18.53;;;14.40;99.90;;;;;;5038712;28;20405;-81
2023/08/31 01:50:07;;;;;;;75.90;18.13;;;14.40;99.90;;;;;;5038784;28;20440;-81
2023/08/31 01:52:32;;;;;;;75.77;17.80;;;14.30;99.90;;;;;;5039208;28;20404;-81
2023/08/31 01:54:58;;;;;;;74.37;18.30;;;14.30;99.90;;;;;;5038805;28;20392;-81
2023/08/31 01:57:24;;;;;;;76.13;18.57;;;14.20;99.90;;;;;;5038322;28;20173;-81
2023/08/31 01:59:49;;;;;;;76.30;20.73;;;14.10;99.90;;;;;;5039426;28;20188;-80
2023/08/31 02:02:15;;;;;;;78.00;21.20;;;14.10;99.90;;;;;;5038557;28;20227;-80
2023/08/31 02:04:41;;;;;;;77.90;23.93;;;14.10;99.90;;;;;;5038747;28;20199;-81
2023/08/31 02:07:07;;;;;;;74.70;19.10;;;14.10;99.90;;;;;;5038586;28;20170;-81
2023/08/31 02:09:33;;;;;;;74.57;19.47;;;14.00;99.90;;;;;;5020448;28;20450;-81
2023/08/31 02:11:59;;;;;;;76.50;21.93;;;14.00;99.90;;;;;;5038380;28;20193;-81
2023/08/31 02:14:24;;;;;;;76.20;24.47;;;14.00;99.90;;;;;;5038710;28;20162;-81
2023/08/31 02:16:50;;;;;;;76.43;18.97;;;14.00;99.90;;;;;;5037938;28;20415;-81
2023/08/31 02:19:16;;;;;;;74.97;17.57;;;13.90;99.90;;;;;;5037976;28;20165;-81
2023/08/31 02:21:41;;;;;;;78.60;23.30;;;13.90;99.90;;;;;;5020111;28;20306;-81
2023/08/31 02:24:07;;;;;;;81.63;19.53;;;14.00;99.90;;;;;;5038003;28;20335;-81
2023/08/31 02:26:36;;;;;;;79.73;18.87;;;14.00;99.90;;;;;;5037887;28;20229;-81
2023/08/31 02:29:02;;;;;;;75.27;17.80;;;14.00;99.90;;;;;;5019745;28;20172;-81
2023/08/31 02:31:28;;;;;;;78.50;18.80;;;13.90;99.90;;;;;;5038093;28;20420;-81
2023/08/31 02:33:53;;;;;;;76.13;22.43;;;13.90;99.90;;;;;;5020135;28;20412;-81
2023/08/31 02:36:20;;;;;;;85.57;21.87;;;13.90;99.90;;;;;;5037897;28;20165;-81
2023/08/31 02:38:46;;;;;;;77.60;20.37;;;13.80;99.90;;;;;;5019592;28;20173;-81
2023/08/31 02:41:12;;;;;;;75.07;21.60;;;13.80;99.90;;;;;;5019543;28;20432;-81
2023/08/31 02:43:39;;;;;;;79.40;20.77;;;13.80;99.90;;;;;;5020030;28;20449;-80
2023/08/31 02:46:05;;;;;;;75.77;22.97;;;13.80;99.90;;;;;;5038083;28;20483;-81
2023/08/31 02:48:32;;;;;;;74.27;18.93;;;13.80;99.90;;;;;;5037589;28;20404;-81
2023/08/31 02:51:02;;;;;;;76.20;20.13;;;13.80;99.90;;;;;;5019559;28;20435;-81
2023/08/31 02:53:31;;;;;;;75.17;16.43;;;13.80;99.90;;;;;;5020042;28;20419;-81
2023/08/31 02:55:57;;;;;;;78.60;20.10;;;13.80;99.90;;;;;;5037684;28;20448;-80
2023/08/31 02:58:23;;;;;;;74.10;17.83;;;13.80;99.90;;;;;;5037684;28;20435;-81
2023/08/31 03:00:48;;;;;;;75.97;14.97;;;13.70;99.90;;;;;;5019587;28;20428;-81
2023/08/31 03:03:17;;;;;;;73.33;16.60;;;13.70;99.90;;;;;;5019575;28;20989;-81
2023/08/31 03:05:44;;;;;;;76.10;17.50;;;13.70;99.90;;;;;;5037150;28;20157;-81
2023/08/31 03:08:10;;;;;;;76.83;21.47;;;13.70;99.90;;;;;;5037179;28;20427;-81
2023/08/31 03:10:36;;;;;;;74.77;20.03;;;13.70;99.90;;;;;;5036635;28;20420;-80
2023/08/31 03:13:01;;;;;;;74.50;19.13;;;13.60;99.90;;;;;;5019626;28;20983;-81
2023/08/31 03:15:27;;;;;;;75.20;17.97;;;13.60;99.90;;;;;;5037406;28;20515;-80
2023/08/31 03:17:53;;;;;;;73.90;16.83;;;13.60;99.90;;;;;;5037158;28;20483;-80
2023/08/31 03:20:19;;;;;;;76.87;22.37;;;13.60;99.90;;;;;;5036784;28;20601;-80
2023/08/31 03:22:44;;;;;;;74.80;17.60;;;13.60;99.90;;;;;;5019088;28;20224;-80
2023/08/31 03:25:10;;;;;;;78.53;20.53;;;13.60;99.90;;;;;;5036650;28;20172;-80
2023/08/31 03:27:35;;;;;;;75.90;21.00;;;13.50;99.90;;;;;;5036918;28;20153;-80
2023/08/31 03:30:03;;;;;;;79.87;27.27;;;13.60;99.90;;;;;;5036643;28;20594;-81
2023/08/31 03:32:28;;;;;;;77.77;25.37;;;13.60;99.90;;;;;;5019044;28;20197;-80
2023/08/31 03:34:54;;;;;;;80.47;27.53;;;13.60;99.90;;;;;;5036339;28;20407;-80
2023/08/31 03:37:21;;;;;;;83.73;26.40;;;13.50;99.90;;;;;;5036127;28;20218;-81
2023/08/31 03:39:48;;;;;;;77.47;24.10;;;13.50;99.90;;;;;;5036648;28;20184;-81
2023/08/31 03:42:13;;;;;;;79.67;28.07;;;13.60;99.90;;;;;;5036561;28;20495;-80
2023/08/31 03:44:39;;;;;;;79.13;26.30;;;13.60;99.90;;;;;;5036016;28;20527;-81
2023/08/31 03:47:05;;;;;;;78.10;23.53;;;13.60;99.90;;;;;;5036696;28;20633;-80
2023/08/31 03:49:31;;;;;;;78.50;24.73;;;13.60;99.90;;;;;;5018388;28;20189;-81
2023/08/31 03:51:58;;;;;;;88.93;25.90;;;13.60;99.90;;;;;;5036529;28;20153;-81
2023/08/31 03:54:23;;;;;;;78.40;22.87;;;13.70;99.90;;;;;;5018688;28;20503;-81
2023/08/31 03:56:49;;;;;;;79.70;24.90;;;13.60;99.90;;;;;;5036702;28;20498;-81
2023/08/31 03:59:15;;;;;;;76.20;25.33;;;13.60;99.90;;;;;;5036726;28;20165;-81
2023/08/31 04:01:40;;;;;;;78.30;25.47;;;13.70;99.90;;;;;;5036974;28;20180;-80
2023/08/31 04:04:06;;;;;;;77.20;23.83;;;13.70;99.90;;;;;;5036240;28;20200;-81
2023/08/31 04:06:32;;;;;;;78.00;20.60;;;13.70;99.90;;;;;;5036249;28;20542;-81
2023/08/31 04:08:57;;;;;;;79.40;26.37;;;13.70;99.90;;;;;;5036526;28;20164;-81
2023/08/31 04:11:25;;;;;;;79.07;22.97;;;13.70;99.90;;;;;;5036265;28;20244;-80
2023/08/31 04:13:50;;;;;;;76.93;23.60;;;13.70;99.90;;;;;;5036082;28;20189;-81
2023/08/31 04:16:16;;;;;;;77.50;24.20;;;13.70;99.90;;;;;;5036176;28;20454;-81
2023/08/31 04:18:42;;;;;;;77.77;26.13;;;13.70;99.90;;;;;;5018430;28;20177;-81
2023/08/31 04:21:08;;;;;;;80.20;24.07;;;13.70;99.90;;;;;;5036440;28;21030;-81
2023/08/31 04:23:34;;;;;;;83.23;25.77;;;13.70;99.90;;;;;;5036289;28;20203;-80
2023/08/31 04:26:00;;;;;;;79.43;24.10;;;13.70;99.90;;;;;;5036629;28;20457;-81
2023/08/31 04:28:25;;;;;;;81.43;25.83;;;13.60;99.90;;;;;;5036062;28;20399;-81
2023/08/31 04:30:52;;;;;;;79.10;26.70;;;13.60;99.90;;;;;;5036113;28;20200;-81
2023/08/31 04:33:17;;;;;;;76.87;24.63;;;13.60;99.90;;;;;;5036582;28;20166;-81
2023/08/31 04:35:43;;;;;;;80.97;24.40;;;13.60;99.90;;;;;;5036301;28;20403;-81
2023/08/31 04:38:09;;;;;;;80.93;26.80;;;13.50;99.90;;;;;;5036315;28;20757;-81
2023/08/31 04:40:36;;;;;;;78.27;26.67;;;13.40;99.90;;;;;;5017744;28;20196;-81
2023/08/31 04:43:02;;;;;;;78.23;26.53;;;13.40;99.90;;;;;;5036229;28;20188;-80
2023/08/31 04:45:28;;;;;;;77.17;26.43;;;13.40;99.90;;;;;;5036121;28;20400;-81
2023/08/31 04:47:54;;;;;;;77.60;24.07;;;13.40;99.90;;;;;;5035948;28;20836;-80
2023/08/31 04:50:19;;;;;;;76.57;23.80;;;13.30;99.90;;;;;;5036055;28;20197;-80
2023/08/31 04:52:45;;;;;;;79.20;27.23;;;13.30;99.90;;;;;;5035840;28;20188;-80
2023/08/31 04:55:13;;;;;;;76.73;25.73;;;13.30;99.90;;;;;;5036531;28;20157;-81
2023/08/31 04:57:39;;;;;;;79.10;25.40;;;13.30;99.90;;;;;;5039234;28;20157;-81
2023/08/31 05:00:07;;;;;;;77.40;24.77;;;13.30;99.90;;;;;;5039382;28;20416;-80
2023/08/31 05:02:32;;;;;;;81.50;30.90;;;13.30;99.90;;;;;;5021753;28;20415;-80
2023/08/31 05:04:58;;;;;;;79.07;25.87;;;13.30;99.90;;;;;;5039403;28;20400;-80
2023/08/31 05:07:23;;;;;;;77.43;23.63;;;13.20;99.90;;;;;;5039932;28;20161;-81
2023/08/31 05:09:50;;;;;;;81.10;28.07;;;13.20;99.90;;;;;;5039421;28;20185;-81
2023/08/31 05:12:17;;;;;;;78.10;25.67;;;13.30;99.90;;;;;;5039480;28;20162;-81
2023/08/31 05:14:43;;;;;;;78.70;24.83;;;13.20;99.90;;;;;;5039332;28;20446;-81
2023/08/31 05:17:08;;;;;;;79.30;23.50;;;13.20;99.90;;;;;;5038366;28;20904;-79
2023/08/31 05:19:34;;;;;;;79.00;28.90;;;13.20;99.90;;;;;;5037627;28;20196;-80
2023/08/31 05:22:00;;;;;;;78.80;26.80;;;13.20;99.90;;;;;;5038166;28;20165;-81
2023/08/31 05:24:26;;;;;;;75.87;23.00;;;13.10;99.90;;;;;;5039037;28;20196;-81
2023/08/31 05:26:51;;;;;;;77.10;24.13;;;13.10;99.90;;;;;;5021003;28;20439;-81
2023/08/31 05:29:17;;;;;;;75.93;22.50;;;13.20;99.90;;;;;;5020900;28;20165;-81
2023/08/31 05:31:43;;;;;;;79.00;23.53;;;13.20;99.90;;;;;;5038375;28;20560;-81
2023/08/31 05:34:17;;;;;;;77.90;23.23;;;13.20;99.90;;;;;;5038719;28;20169;-81
2023/08/31 05:36:43;;;;;;;80.37;28.00;;;13.30;99.90;;;;;;5020755;28;20211;-81
2023/08/31 05:39:09;;;;;;;82.30;26.83;;;13.30;99.90;;;;;;5020513;28;20943;-81
2023/08/31 05:41:35;;;;;;;78.23;25.73;;;13.30;99.90;;;;;;5038822;28;20165;-81
2023/08/31 05:44:01;;;;;;;77.30;23.40;;;13.30;99.90;;;;;;5021567;28;20811;-81
2023/08/31 05:46:27;;;;;;;76.70;23.20;;;13.30;99.90;;;;;;5021319;28;20202;-81
2023/08/31 05:48:53;;;;;;;76.10;24.27;;;13.30;99.90;;;;;;5038748;28;20859;-81
2023/08/31 05:51:18;;;;;;;79.53;22.83;;;13.30;99.90;;;;;;5020714;28;20201;-81
2023/08/31 05:53:44;;;;;;;78.13;24.57;;;13.30;99.90;;;;;;5038735;28;20204;-81
2023/08/31 05:56:09;;;;;;;79.93;24.73;;;13.30;99.90;;;;;;5037159;28;20237;-81
2023/08/31 05:58:36;;;;;;;79.03;24.00;;;13.40;99.90;;;;;;5038133;28;20157;-81
2023/08/31 06:01:03;;;;;;;79.00;25.50;;;13.40;99.90;;;;;;5038087;28;20185;-81
2023/08/31 06:03:29;;;;;;;78.90;25.43;;;13.40;99.90;;;;;;5037523;28;20447;-80
2023/08/31 06:05:59;;;;;;;75.47;20.30;;;13.50;99.90;;;;;;5037936;28;20904;-81
2023/08/31 06:08:25;;;;;;;79.70;22.10;;;13.50;99.90;;;;;;5037888;28;20423;-80
2023/08/31 06:10:51;;;;;;;76.93;22.73;;;13.50;99.90;;;;;;5037667;28;20420;-81
2023/08/31 06:13:17;;;;;;;77.67;23.20;;;13.50;99.90;;;;;;5037815;28;20491;-81
2023/08/31 06:15:44;;;;;;;77.87;22.27;;;13.60;99.90;;;;;;5020189;28;20476;-81
2023/08/31 06:18:10;;;;;;;77.13;23.43;;;13.60;99.90;;;;;;5037694;28;20165;-81
2023/08/31 06:20:36;;;;;;;75.87;23.33;;;13.60;99.90;;;;;;5037624;28;20423;-81
2023/08/31 06:23:02;;;;;;;75.67;21.57;;;13.70;99.90;;;;;;5037696;28;21058;-81
2023/08/31 06:25:28;;;;;;;77.50;25.40;;;13.70;99.90;;;;;;5019667;28;20249;-80
2023/08/31 06:27:54;;;;;;;76.70;24.67;;;13.70;99.90;;;;;;5019110;28;20429;-80
2023/08/31 06:30:19;;;;;;;78.50;25.50;;;13.70;99.90;;;;;;5020581;28;20526;-80
2023/08/31 06:32:46;;;;;;;79.67;25.73;;;13.70;99.90;;;;;;5039653;28;20168;-81
2023/08/31 06:35:13;;;;;;;98.97;24.40;;;13.80;99.90;;;;;;5040954;28;20185;-81
2023/08/31 06:37:39;;;;;;;79.20;23.90;;;13.90;99.90;;;;;;5039102;28;20826;-80
2023/08/31 06:42:46;;;;;;;81.90;25.03;;;14.00;99.90;;;;;;5075094;28;20462;-80
2023/08/31 06:45:11;;;;;;;80.03;25.43;;;14.00;99.90;;;;;;5077651;28;20400;-79
2023/08/31 06:47:37;;;;;;;78.30;24.30;;;14.00;99.90;;;;;;5076894;28;20571;-80
2023/08/31 06:50:03;;;;;;;76.17;24.73;;;14.00;99.90;;;;;;5075979;28;20683;-79
2023/08/31 06:52:29;;;;;;;81.43;24.47;;;14.00;99.90;;;;;;5076697;28;20164;-79
2023/08/31 06:54:56;;;;;;;79.83;26.27;;;14.00;99.90;;;;;;5077054;28;20394;-79
2023/08/31 06:57:23;;;;;;;81.63;23.10;;;14.10;99.90;;;;;;5077144;28;20856;-79
2023/08/31 06:59:49;;;;;;;78.23;25.93;;;14.10;99.90;;;;;;5076741;28;20422;-79
2023/08/31 07:02:15;;;;;;;78.70;27.53;;;14.20;99.90;;;;;;5077035;28;20390;-79
2023/08/31 07:04:41;;;;;;;79.07;26.93;;;14.20;99.90;;;;;;5076820;28;20190;-79
2023/08/31 07:07:08;;;;;;;80.17;30.33;;;14.20;99.90;;;;;;5076719;28;20433;-79
2023/08/31 07:09:34;;;;;;;76.77;25.80;;;14.30;99.90;;;;;;5076559;28;20767;-79
2023/08/31 07:12:01;;;;;;;81.40;27.53;;;14.30;99.90;;;;;;5076674;28;20411;-79
2023/08/31 07:14:27;;;;;;;82.70;24.80;;;14.30;99.90;;;;;;5077102;28;20468;-79
2023/08/31 07:16:53;;;;;;;76.50;23.33;;;14.40;99.90;;;;;;5076514;28;20398;-79
2023/08/31 07:19:18;;;;;;;79.27;25.40;;;14.40;99.90;;;;;;5075882;28;20160;-80
2023/08/31 07:21:44;;;;;;;77.63;25.50;;;14.50;99.90;;;;;;5076402;28;20235;-79
2023/08/31 07:24:10;;;;;;;79.27;30.17;;;14.50;99.90;;;;;;5076039;28;20599;-79
2023/08/31 07:26:35;;;;;;;77.17;27.33;;;14.60;99.90;;;;;;5076214;28;20651;-79
2023/08/31 07:29:04;;;;;;;83.30;23.03;;;14.60;99.90;;;;;;5075894;28;20160;-79
2023/08/31 07:31:31;;;;;;;76.00;22.30;;;14.70;99.90;;;;;;5076056;28;20190;-79
2023/08/31 07:33:57;;;;;;;76.87;25.57;;;14.80;99.90;;;;;;5076285;28;20398;-79
2023/08/31 07:36:24;;;;;;;84.17;35.17;;;14.80;99.90;;;;;;5075905;28;20403;-79
2023/08/31 07:38:49;;;;;;;78.40;28.60;;;14.90;99.90;;;;;;5058444;28;20420;-79
2023/08/31 07:41:15;;;;;;;79.57;31.03;;;14.90;99.90;;;;;;5076370;28;20843;-79
2023/08/31 07:43:41;;;;;;;83.20;34.53;;;15.00;99.90;;;;;;5076018;28;20215;-79
2023/08/31 07:46:06;;;;;;;80.90;31.70;;;15.10;99.90;;;;;;5058446;28;20651;-79
2023/08/31 07:48:32;;;;;;;96.90;45.03;;;15.10;99.90;;;;;;5076027;28;20164;-79
2023/08/31 07:50:58;;;;;;;81.20;33.20;;;15.10;99.90;;;;;;5075847;28;20180;-79
2023/08/31 07:53:23;;;;;;;84.70;37.07;;;15.20;99.90;;;;;;5075558;28;20196;-79
2023/08/31 07:55:56;;;;;;;79.90;32.60;;;15.30;99.90;;;;;;5075342;28;20192;-79
2023/08/31 07:58:22;;;;;;;74.80;18.97;;;15.40;99.90;;;;;;5075789;28;20157;-79
2023/08/31 08:00:48;;;;;;;72.33;12.73;;;15.50;99.90;;;;;;5075723;28;20789;-79
2023/08/31 08:03:14;;;;;;;74.90;19.83;;;15.60;99.90;;;;;;5057613;28;20941;-79
2023/08/31 08:05:41;;;;;;;76.73;16.47;;;15.50;99.90;;;;;;5057523;28;20411;-79
2023/08/31 08:08:07;;;;;;;77.63;16.40;;;15.60;99.90;;;;;;5075181;28;20792;-79
2023/08/31 08:10:33;;;;;;;81.37;17.23;;;15.60;99.90;;;;;;5074955;28;20432;-79
2023/08/31 08:12:59;;;;;;;77.10;18.97;;;15.60;99.90;;;;;;5075372;28;20450;-79
2023/08/31 08:15:25;;;;;;;75.80;19.13;;;15.60;99.90;;;;;;5057466;28;20415;-79
2023/08/31 08:17:53;;;;;;;77.60;19.43;;;15.70;99.90;;;;;;5075187;28;20167;-79
2023/08/31 08:20:19;;;;;;;76.10;20.70;;;15.70;99.90;;;;;;5075591;28;20571;-79
2023/08/31 08:22:45;;;;;;;75.03;20.77;;;15.70;99.90;;;;;;5075079;28;20441;-79
2023/08/31 08:25:11;;;;;;;77.30;23.70;;;15.80;99.90;;;;;;5057259;28;20422;-79
2023/08/31 08:27:36;;;;;;;80.73;17.80;;;15.80;99.90;;;;;;5075713;28;20219;-79
2023/08/31 08:30:03;;;;;;;76.03;19.20;;;15.90;99.90;;;;;;5077234;28;20416;-79
2023/08/31 08:32:29;;;;;;;75.47;19.40;;;16.00;99.90;;;;;;5061693;28;20244;-79
2023/08/31 08:34:54;;;;;;;75.50;19.23;;;16.10;99.90;;;;;;5078954;28;20412;-79
2023/08/31 08:37:20;;;;;;;76.10;16.83;;;16.10;99.90;;;;;;5079797;28;20220;-79
2023/08/31 08:39:52;;;;;;;73.50;15.83;;;16.20;99.90;;;;;;5079338;28;20277;-79
2023/08/31 08:42:19;;;;;;;73.47;17.37;;;16.20;97.90;;;;;;5079093;28;20184;-79
2023/08/31 08:44:45;;;;;;;78.20;17.10;;;16.30;97.50;;;;;;5078548;28;20446;-79
2023/08/31 08:47:13;;;;;;;74.90;15.27;;;16.20;94.60;;;;;;5079007;28;20483;-79
2023/08/31 08:49:39;;;;;;;77.37;17.17;;;16.30;98.90;;;;;;5078727;28;20436;-79
2023/08/31 08:52:05;;;;;;;74.63;15.93;;;16.40;99.60;;;;;;5061422;28;20412;-79
2023/08/31 08:54:31;;;;;;;79.60;11.77;;;16.50;94.90;;;;;;5079965;28;20451;-79
2023/08/31 08:56:57;;;;;;;71.97;13.67;;;16.50;92.30;;;;;;5079169;28;20405;-79
2023/08/31 08:59:24;;;;;;;74.23;16.00;;;16.50;91.90;;;;;;5078587;28;20398;-79
2023/08/31 09:01:50;;;;;;;73.03;14.57;;;16.50;92.90;;;;;;5079098;28;20186;-79
2023/08/31 09:04:15;;;;;;;72.50;10.23;;;16.70;76.60;;;;;;5078494;28;20865;-79
2023/08/31 09:06:41;;;;;;;73.43;11.07;;;16.70;62.50;;;;;;5078887;28;20271;-79
2023/08/31 09:09:11;;;;;;;71.57;10.60;;;16.80;60.50;;;;;;5078585;28;20762;-80
2023/08/31 09:11:36;;;;;;;71.50;11.07;;;16.70;60.50;;;;;;5078716;28;20166;-79
2023/08/31 09:14:16;;;;;;;72.40;10.60;;;16.70;65.30;;;;;;5078328;28;20451;-79
2023/08/31 09:16:45;;;;;;;72.60;9.63;;;16.70;62.50;;;;;;5078305;28;20465;-79
2023/08/31 09:19:18;;;;;;;71.17;8.30;;;16.70;51.40;;;;;;5078713;28;20411;-79
2023/08/31 09:21:45;;;;;;;73.77;10.37;;;16.70;48.10;;;;;;5078484;28;20388;-79
2023/08/31 09:24:12;;;;;;;72.57;9.37;;;16.70;57.70;;;;;;5078679;28;20432;-79
2023/08/31 09:26:44;;;;;;;72.97;10.67;;;16.90;51.40;;;;;;5078441;28;20414;-79
2023/08/31 09:29:10;;;;;;;72.57;8.00;;;16.90;50.30;;;;;;5078150;28;20385;-79
2023/08/31 09:31:46;;;;;;;75.57;9.40;;;17.00;52.30;;;;;;5078081;28;20771;-79
2023/08/31 09:34:12;;;;;;;70.97;10.80;;;17.10;50.30;;;;;;5078265;28;20157;-79
2023/08/31 09:36:38;;;;;;;71.63;9.47;;;17.10;50.70;;;;;;5077901;28;20404;-79
2023/08/31 09:39:06;;;;;;;70.87;10.57;;;17.10;40.20;;;;;;5077725;28;20415;-79
2023/08/31 09:41:33;;;;;;;70.40;9.57;;;17.30;55.20;;;;;;5077723;28;20518;-79
2023/08/31 09:44:18;;;;;;;70.77;8.97;;;17.40;35.20;;;;;;5060686;28;20958;-79
2023/08/31 09:46:44;;;;;;;72.07;7.87;;;17.60;40.40;;;;;;5077649;28;20404;-79
2023/08/31 09:49:15;;;;;;;71.03;9.60;;;17.70;35.70;;;;;;5077714;28;20409;-79
2023/08/31 09:51:46;;;;;;;70.97;6.97;;;17.90;31.20;;;;;;5078172;28;20412;-79
2023/08/31 09:54:21;;;;;;;70.60;9.73;;;18.00;21.00;;;;;;5078405;28;20501;-79
2023/08/31 09:56:47;;;;;;;73.70;8.80;;;18.00;18.70;;;;;;5077906;28;20389;-79
2023/08/31 09:59:15;;;;;;;72.60;11.70;;;18.10;20.40;;;;;;5077762;28;20426;-79
2023/08/31 10:01:43;;;;;;;71.80;11.10;;;18.10;12.10;;;;;;5059694;28;20405;-79
2023/08/31 10:04:09;;;;;;;74.80;12.70;;;18.10;22.30;;;;;;5077500;28;20445;-79
2023/08/31 10:06:38;;;;;;;72.10;13.90;;;18.10;21.20;;;;;;5077898;28;20409;-79
2023/08/31 10:09:04;;;;;;;74.03;14.40;;;18.20;12.40;;;;;;5077677;28;20404;-79
2023/08/31 10:11:31;;;;;;;72.57;16.23;;;18.40;9.30;;;;;;5078675;28;20491;-79
2023/08/31 10:13:58;;;;;;;71.93;10.90;;;18.60;2.30;;;;;;5077913;28;20419;-79
2023/08/31 10:16:26;;;;;;;69.67;6.20;;;18.70;1.00;;;;;;5077684;28;20897;-79
2023/08/31 10:18:52;;;;;;;69.13;3.60;;;18.90;1.00;;;;;;5077886;28;20406;-79
2023/08/31 10:21:18;;;;;;;70.13;4.60;;;18.90;1.00;;;;;;5078211;28;20421;-79
2023/08/31 10:23:48;;;;;;;68.23;3.80;;;19.00;1.00;;;;;;5077799;28;20511;-79
2023/08/31 10:26:30;;;;;;;71.10;4.20;;;19.00;1.00;;;;;;5077899;28;20394;-79
2023/08/31 10:28:57;;;;;;;76.33;3.77;;;19.00;1.00;;;;;;5077638;28;20379;-79
2023/08/31 10:31:23;;;;;;;70.20;3.93;;;18.90;1.00;;;;;;5077545;28;20964;-79
2023/08/31 10:34:03;;;;;;;70.10;4.07;;;18.80;1.00;;;;;;5077328;28;20403;-79
2023/08/31 10:36:45;;;;;;;69.30;4.17;;;18.80;1.00;;;;;;5077529;28;20528;-79
2023/08/31 10:39:16;;;;;;;68.47;4.00;;;18.70;1.00;;;;;;5076851;28;20473;-79
2023/08/31 10:41:51;;;;;;;70.40;4.70;;;18.60;1.00;;;;;;5077130;28;20998;-80
2023/08/31 10:44:31;;;;;;;67.90;3.83;;;18.70;1.00;;;;;;5077668;28;20430;-80
2023/08/31 10:47:00;;;;;;;71.60;4.50;;;18.70;1.00;;;;;;5059417;28;20390;-80
2023/08/31 10:49:26;;;;;;;69.73;3.87;;;18.90;1.00;;;;;;5059370;28;20433;-80
2023/08/31 10:51:57;;;;;;;69.70;4.60;;;19.00;1.00;;;;;;5077375;28;20422;-80
2023/08/31 10:54:30;;;;;;;69.03;4.50;;;19.20;1.00;;;;;;5075735;28;20160;-80
2023/08/31 10:57:07;;;;;;;71.50;4.73;;;19.30;1.00;;;;;;5076260;28;20391;-80
2023/08/31 10:59:46;;;;;;;71.27;5.40;;;19.30;1.00;;;;;;5076233;28;20417;-80
2023/08/31 11:02:38;;;;;;;69.93;5.30;;;19.30;1.00;;;;;;5076023;28;20417;-80
2023/08/31 11:05:14;;;;;;;69.93;5.43;;;19.40;1.00;;;;;;5077036;28;20418;-80
2023/08/31 11:07:41;;;;;;;70.40;5.37;;;19.60;1.00;;;;;;5076604;28;20378;-80
2023/08/31 11:10:17;;;;;;;68.87;4.90;;;19.70;1.00;;;;;;5076215;28;20414;-80
2023/08/31 11:12:45;;;;;;;73.17;6.37;;;19.80;1.00;;;;;;5076536;28;20381;-80
2023/08/31 11:15:13;;;;;;;71.47;5.37;;;20.20;1.00;;;;;;5076502;28;20426;-80
2023/08/31 11:17:40;;;;;;;71.50;5.77;;;20.40;1.00;;;;;;5076861;28;20821;-80
2023/08/31 11:20:08;;;;;;;70.00;5.70;;;20.40;1.00;;;;;;5076029;28;20498;-79
2023/08/31 11:22:38;;;;;;;72.17;6.17;;;20.10;1.00;;;;;;5076016;28;20409;-80
2023/08/31 11:25:04;;;;;;;70.10;5.80;;;19.80;1.00;;;;;;5075704;28;20961;-79
2023/08/31 11:27:30;;;;;;;74.10;14.97;;;19.50;1.00;;;;;;5076473;28;20400;-79
2023/08/31 11:29:56;;;;;;;77.20;23.03;;;19.10;31.40;;;;;;5076060;28;20423;-80
2023/08/31 11:32:24;;;;;;;80.97;33.03;;;18.90;36.70;;;;;;5077529;28;20164;-81
2023/08/31 11:34:50;;;;;;;102.50;75.60;;;18.60;51.50;;;;;;5076947;28;20194;-81
2023/08/31 11:37:20;;;;;;;81.40;28.03;;;18.30;46.50;;;;;;5058389;28;20414;-80
2023/08/31 11:39:51;;;;;;;83.43;27.10;;;18.10;61.00;;;;;;5057841;28;20436;-79
2023/08/31 11:42:18;;;;;;;78.47;19.80;;;17.90;68.00;;;;;;5076317;28;20856;-80
2023/08/31 11:44:49;;;;;;;73.90;19.10;;;17.80;83.80;;;;;;5057578;28;20438;-80
2023/08/31 11:47:16;;;;;;;73.20;17.00;;;17.80;88.10;;;;;;5075526;28;20492;-79
2023/08/31 11:49:42;;;;;;;73.43;18.43;;;17.60;98.80;;;;;;5075890;28;20422;-79
2023/08/31 11:52:11;;;;;;;76.80;13.90;;;17.60;99.90;;;;;;5075891;28;20493;-79
2023/08/31 11:54:38;;;;;;;74.47;22.17;;;17.60;99.90;;;;;;5057766;28;20937;-80
2023/08/31 11:57:08;;;;;;;80.53;28.00;;;17.40;99.90;;;;;;5075544;28;20394;-80
2023/08/31 11:59:36;;;;;;;83.10;27.53;;;17.80;99.90;;;;;;5057697;28;20520;-80
2023/08/31 12:02:02;;;;;;;82.97;30.63;;;18.00;99.90;;;;;;5076061;28;20410;-80
2023/08/31 12:04:28;;;;;;;84.43;42.90;;;18.40;99.90;;;;;;5075211;28;20445;-80
2023/08/31 12:07:06;;;;;;;79.90;31.40;;;19.00;99.90;;;;;;5057955;28;20750;-81
2023/08/31 12:09:32;;;;;;;81.43;29.73;;;19.60;99.90;;;;;;5075985;28;20228;-81
2023/08/31 12:11:58;;;;;;;76.87;14.07;;;20.10;99.90;;;;;;5075815;28;20419;-81
2023/08/31 12:14:25;;;;;;;75.77;15.17;;;20.40;93.10;;;;;;5075514;28;20481;-81
2023/08/31 12:16:59;;;;;;;73.67;12.33;;;20.40;79.60;;;;;;5075750;28;20619;-82
2023/08/31 12:19:29;;;;;;;77.50;16.40;;;20.70;76.20;;;;;;5075736;28;20502;-82
2023/08/31 12:21:54;;;;;;;78.17;23.50;;;20.80;55.50;;;;;;5075817;28;20406;-82
2023/08/31 12:24:22;;;;;;;75.40;14.40;;;20.80;32.60;;;;;;5076202;28;20449;-82
2023/08/31 12:26:48;;;;;;;76.87;17.50;;;20.70;27.90;;;;;;5075650;28;20511;-82
2023/08/31 12:29:13;;;;;;;75.37;16.33;;;20.50;42.00;;;;;;5075659;28;20409;-82
2023/08/31 12:31:39;;;;;;;74.07;8.87;;;20.40;46.70;;;;;;5075916;28;20168;-81